sensor_id;sensor_type;location;lat;lon;timestamp;pressure;altitude;pressure_sealevel;temperature;humidity
29163;BME280;20331;53.144;8.208;2023-12-20T00:00:57;101171.66;;;6.92;100.00
29163;BME280;20331;53.144;8.208;2023-12-20T00:06:19;101158.84;;;6.88;100.00
29163;BME280;20331;53.144;8.208;2023-12-20T00:11:40;101164.91;;;6.82;100.00
29163;BME280;20331;53.144;8.208;2023-12-20T00:17:03;101162.34;;;6.81;100.00
29163;BME280;20331;53.144;8.208;2023-12-20T00:22:25;101143.53;;;6.77;100.00
29163;BME280;20331;53.144;8.208;2023-12-20T00:27:47;101150.44;;;6.69;100.00
29163;BME280;20331;53.144;8.208;2023-12-20T00:33:09;101142.75;;;6.69;100.00
29163;BME280;20331;53.144;8.208;2023-12-20T00:38:31;101137.59;;;6.69;100.00
29163;BME280;20331;53.144;8.208;2023-12-20T00:43:52;101135.88;;;6.71;100.00
29163;BME280;20331;53.144;8.208;2023-12-20T00:49:14;101146.16;;;6.71;100.00
29163;BME280;20331;53.144;8.208;2023-12-20T00:54:38;101139.28;;;6.73;100.00
29163;BME280;20331;53.144;8.208;2023-12-20T00:59:59;101129.81;;;6.77;100.00
29163;BME280;20331;53.144;8.208;2023-12-20T01:05:21;101127.22;;;6.78;100.00
29163;BME280;20331;53.144;8.208;2023-12-20T01:10:44;101112.66;;;6.79;100.00
29163;BME280;20331;53.144;8.208;2023-12-20T01:16:10;101108.34;;;6.79;100.00
29163;BME280;20331;53.144;8.208;2023-12-20T01:21:32;101113.50;;;6.78;100.00
29163;BME280;20331;53.144;8.208;2023-12-20T01:26:54;101110.97;;;6.75;100.00
29163;BME280;20331;53.144;8.208;2023-12-20T01:32:16;101107.63;;;6.68;100.00
29163;BME280;20331;53.144;8.208;2023-12-20T01:37:37;101092.22;;;6.64;100.00
29163;BME280;20331;53.144;8.208;2023-12-20T01:43:07;101104.28;;;6.59;100.00
29163;BME280;20331;53.144;8.208;2023-12-20T01:48:30;101088.00;;;6.58;100.00
29163;BME280;20331;53.144;8.208;2023-12-20T01:53:55;101093.19;;;6.55;100.00
29163;BME280;20331;53.144;8.208;2023-12-20T01:59:20;101076.88;;;6.56;100.00
29163;BME280;20331;53.144;8.208;2023-12-20T02:04:41;101067.47;;;6.55;100.00
29163;BME280;20331;53.144;8.208;2023-12-20T02:10:04;101072.63;;;6.52;100.00
29163;BME280;20331;53.144;8.208;2023-12-20T02:15:26;101067.47;;;6.55;100.00
29163;BME280;20331;53.144;8.208;2023-12-20T02:20:48;101064.88;;;6.57;100.00
29163;BME280;20331;53.144;8.208;2023-12-20T02:26:10;101059.75;;;6.57;100.00
29163;BME280;20331;53.144;8.208;2023-12-20T02:31:32;101052.81;;;6.62;100.00
29163;BME280;20331;53.144;8.208;2023-12-20T02:36:54;101035.69;;;6.62;100.00
29163;BME280;20331;53.144;8.208;2023-12-20T02:42:15;101039.09;;;6.64;100.00
29163;BME280;20331;53.144;8.208;2023-12-20T02:47:37;101041.63;;;6.67;100.00
29163;BME280;20331;53.144;8.208;2023-12-20T02:52:59;101040.75;;;6.70;100.00
29163;BME280;20331;53.144;8.208;2023-12-20T02:58:20;101029.66;;;6.66;100.00
29163;BME280;20331;53.144;8.208;2023-12-20T03:03:42;101027.88;;;6.71;100.00
29163;BME280;20331;53.144;8.208;2023-12-20T03:09:04;101029.56;;;6.75;100.00
29163;BME280;20331;53.144;8.208;2023-12-20T03:14:25;101016.72;;;6.74;100.00
29163;BME280;20331;53.144;8.208;2023-12-20T03:19:47;101014.94;;;6.79;100.00
29163;BME280;20331;53.144;8.208;2023-12-20T03:25:09;101016.59;;;6.83;100.00
29163;BME280;20331;53.144;8.208;2023-12-20T03:30:30;100992.56;;;6.84;100.00
29163;BME280;20331;53.144;8.208;2023-12-20T03:35:52;101002.81;;;6.87;100.00
29163;BME280;20331;53.144;8.208;2023-12-20T03:41:14;100995.09;;;6.90;100.00
29163;BME280;20331;53.144;8.208;2023-12-20T03:46:35;100984.78;;;6.91;100.00
29163;BME280;20331;53.144;8.208;2023-12-20T03:51:57;100974.47;;;6.91;100.00
29163;BME280;20331;53.144;8.208;2023-12-20T03:57:19;100967.63;;;6.90;100.00
29163;BME280;20331;53.144;8.208;2023-12-20T04:02:41;100970.19;;;6.90;100.00
29163;BME280;20331;53.144;8.208;2023-12-20T04:08:03;100972.75;;;6.90;100.00
29163;BME280;20331;53.144;8.208;2023-12-20T04:13:25;100952.97;;;6.97;100.00
29163;BME280;20331;53.144;8.208;2023-12-20T04:18:47;100957.34;;;6.92;100.00
29163;BME280;20331;53.144;8.208;2023-12-20T04:24:08;100967.63;;;6.90;100.00
29163;BME280;20331;53.144;8.208;2023-12-20T04:29:30;100960.78;;;6.89;100.00
29163;BME280;20331;53.144;8.208;2023-12-20T04:34:52;100974.47;;;6.91;100.00
29163;BME280;20331;53.144;8.208;2023-12-20T04:40:13;100965.88;;;6.94;100.00
29163;BME280;20331;53.144;8.208;2023-12-20T04:45:35;100969.28;;;6.97;100.00
29163;BME280;20331;53.144;8.208;2023-12-20T04:50:57;100947.03;;;6.93;100.00
29163;BME280;20331;53.144;8.208;2023-12-20T04:56:18;100958.13;;;6.97;100.00
29163;BME280;20331;53.144;8.208;2023-12-20T05:01:40;100940.13;;;6.95;100.00
29163;BME280;20331;53.144;8.208;2023-12-20T05:07:03;100941.81;;;6.98;100.00
29163;BME280;20331;53.144;8.208;2023-12-20T05:12:26;100936.66;;;6.99;100.00
29163;BME280;20331;53.144;8.208;2023-12-20T05:17:48;100932.41;;;6.97;100.00
29163;BME280;20331;53.144;8.208;2023-12-20T05:23:10;100940.03;;;7.03;100.00
29163;BME280;20331;53.144;8.208;2023-12-20T05:28:34;100939.16;;;7.04;100.00
29163;BME280;20331;53.144;8.208;2023-12-20T05:33:55;100927.19;;;7.03;100.00
29163;BME280;20331;53.144;8.208;2023-12-20T05:39:17;100926.13;;;7.14;100.00
29163;BME280;20331;53.144;8.208;2023-12-20T05:44:39;100925.34;;;7.09;100.00
29163;BME280;20331;53.144;8.208;2023-12-20T05:50:01;100926.09;;;7.18;100.00
29163;BME280;20331;53.144;8.208;2023-12-20T05:55:22;100923.59;;;7.13;100.00
29163;BME280;20331;53.144;8.208;2023-12-20T06:00:44;100920.97;;;7.18;100.00
29163;BME280;20331;53.144;8.208;2023-12-20T06:06:06;100914.88;;;7.22;100.00
29163;BME280;20331;53.144;8.208;2023-12-20T06:11:37;100909.72;;;7.23;100.00
29163;BME280;20331;53.144;8.208;2023-12-20T06:16:59;100905.38;;;7.27;100.00
29163;BME280;20331;53.144;8.208;2023-12-20T06:22:20;100889.97;;;7.24;100.00
29163;BME280;20331;53.144;8.208;2023-12-20T06:27:42;100881.41;;;7.23;100.00
29163;BME280;20331;53.144;8.208;2023-12-20T06:33:04;100883.94;;;7.26;100.00
29163;BME280;20331;53.144;8.208;2023-12-20T06:38:28;100878.75;;;7.28;100.00
29163;BME280;20331;53.144;8.208;2023-12-20T06:43:50;100871.09;;;7.25;100.00
29163;BME280;20331;53.144;8.208;2023-12-20T06:49:14;100864.16;;;7.30;100.00
29163;BME280;20331;53.144;8.208;2023-12-20T06:54:36;100854.72;;;7.30;100.00
29163;BME280;20331;53.144;8.208;2023-12-20T06:59:58;100864.09;;;7.33;100.00
29163;BME280;20331;53.144;8.208;2023-12-20T07:05:19;100857.19;;;7.35;100.00
29163;BME280;20331;53.144;8.208;2023-12-20T07:10:41;100851.25;;;7.31;100.00
29163;BME280;20331;53.144;8.208;2023-12-20T07:16:03;100846.91;;;7.35;100.00
29163;BME280;20331;53.144;8.208;2023-12-20T07:21:25;100850.34;;;7.34;100.00
29163;BME280;20331;53.144;8.208;2023-12-20T07:26:46;100849.44;;;7.36;100.00
29163;BME280;20331;53.144;8.208;2023-12-20T07:32:08;100834.81;;;7.40;100.00
29163;BME280;20331;53.144;8.208;2023-12-20T07:37:30;100830.53;;;7.39;100.00
29163;BME280;20331;53.144;8.208;2023-12-20T07:42:51;100830.47;;;7.43;100.00
29163;BME280;20331;53.144;8.208;2023-12-20T07:48:13;100821.69;;;7.53;100.00
29163;BME280;20331;53.144;8.208;2023-12-20T07:53:35;100828.47;;;7.59;100.00
29163;BME280;20331;53.144;8.208;2023-12-20T07:58:57;100822.47;;;7.57;100.00
29163;BME280;20331;53.144;8.208;2023-12-20T08:04:21;100830.09;;;7.63;100.00
29163;BME280;20331;53.144;8.208;2023-12-20T08:09:43;100824.13;;;7.61;100.00
29163;BME280;20331;53.144;8.208;2023-12-20T08:15:05;100817.22;;;7.63;100.00
29163;BME280;20331;53.144;8.208;2023-12-20T08:20:27;100812.09;;;7.63;100.00
29163;BME280;20331;53.144;8.208;2023-12-20T08:26:07;100796.75;;;7.57;100.00
29163;BME280;20331;53.144;8.208;2023-12-20T08:31:29;100805.19;;;7.65;100.00
29163;BME280;20331;53.144;8.208;2023-12-20T08:36:51;100805.19;;;7.65;100.00
29163;BME280;20331;53.144;8.208;2023-12-20T08:42:15;100807.78;;;7.63;100.00
29163;BME280;20331;53.144;8.208;2023-12-20T08:47:37;100794.94;;;7.60;100.00
29163;BME280;20331;53.144;8.208;2023-12-20T08:52:58;100799.28;;;7.60;100.00
29163;BME280;20331;53.144;8.208;2023-12-20T08:58:20;100786.38;;;7.61;100.00
29163;BME280;20331;53.144;8.208;2023-12-20T09:03:42;100766.59;;;7.62;100.00
29163;BME280;20331;53.144;8.208;2023-12-20T09:09:03;100764.84;;;7.64;100.00
29163;BME280;20331;53.144;8.208;2023-12-20T09:14:25;100749.22;;;7.74;100.00
29163;BME280;20331;53.144;8.208;2023-12-20T09:19:47;100866.75;;;7.77;100.00
29163;BME280;20331;53.144;8.208;2023-12-20T09:25:10;100880.16;;;6.93;100.00
29163;BME280;20331;53.144;8.208;2023-12-20T09:30:32;100888.47;;;6.50;100.00
29163;BME280;20331;53.144;8.208;2023-12-20T09:35:54;100884.50;;;6.23;100.00
29163;BME280;20331;53.144;8.208;2023-12-20T09:41:16;100884.75;;;5.99;100.00
29163;BME280;20331;53.144;8.208;2023-12-20T09:46:46;100888.25;;;5.92;100.00
29163;BME280;20331;53.144;8.208;2023-12-20T09:52:10;100881.41;;;5.94;100.00
29163;BME280;20331;53.144;8.208;2023-12-20T09:57:32;100856.56;;;5.96;100.00
29163;BME280;20331;53.144;8.208;2023-12-20T10:02:59;100874.47;;;6.02;100.00
29163;BME280;20331;53.144;8.208;2023-12-20T10:08:21;100876.16;;;6.03;100.00
29163;BME280;20331;53.144;8.208;2023-12-20T10:13:44;100898.34;;;6.10;100.00
29163;BME280;20331;53.144;8.208;2023-12-20T10:19:08;100892.34;;;6.11;100.00
29163;BME280;20331;53.144;8.208;2023-12-20T10:24:30;100910.22;;;6.20;100.00
29163;BME280;20331;53.144;8.208;2023-12-20T10:29:52;100908.44;;;6.25;100.00
29163;BME280;20331;53.144;8.208;2023-12-20T10:35:14;100886.13;;;6.30;100.00
29163;BME280;20331;53.144;8.208;2023-12-20T10:40:36;100880.09;;;6.34;100.00
29163;BME280;20331;53.144;8.208;2023-12-20T10:45:59;100882.53;;;6.46;100.00
29163;BME280;20331;53.144;8.208;2023-12-20T10:51:21;100873.84;;;6.53;100.00
29163;BME280;20331;53.144;8.208;2023-12-20T10:56:48;100884.00;;;6.62;100.00
29163;BME280;20331;53.144;8.208;2023-12-20T11:02:13;100865.00;;;6.75;100.00
29163;BME280;20331;53.144;8.208;2023-12-20T11:07:43;100853.75;;;6.81;100.00
29163;BME280;20331;53.144;8.208;2023-12-20T11:13:14;100861.25;;;6.94;100.00
29163;BME280;20331;53.144;8.208;2023-12-20T11:18:40;100856.00;;;7.02;100.00
29163;BME280;20331;53.144;8.208;2023-12-20T11:24:03;100840.44;;;7.09;100.00
29163;BME280;20331;53.144;8.208;2023-12-20T11:29:37;100842.13;;;7.10;100.00
29163;BME280;20331;53.144;8.208;2023-12-20T11:35:01;100838.72;;;7.11;100.00
29163;BME280;20331;53.144;8.208;2023-12-20T11:40:23;100835.16;;;7.19;100.00
29163;BME280;20331;53.144;8.208;2023-12-20T11:45:49;100862.44;;;7.30;100.00
29163;BME280;20331;53.144;8.208;2023-12-20T11:51:13;100837.56;;;7.31;100.00
29163;BME280;20331;53.144;8.208;2023-12-20T11:56:36;100826.22;;;7.41;100.00
29163;BME280;20331;53.144;8.208;2023-12-20T12:01:59;100832.91;;;7.51;100.00
29163;BME280;20331;53.144;8.208;2023-12-20T12:07:23;100830.19;;;7.58;100.00
29163;BME280;20331;53.144;8.208;2023-12-20T12:12:44;100836.97;;;7.62;100.00
29163;BME280;20331;53.144;8.208;2023-12-20T12:18:07;100828.25;;;7.69;100.00
29163;BME280;20331;53.144;8.208;2023-12-20T12:23:28;100833.22;;;7.80;100.00
29163;BME280;20331;53.144;8.208;2023-12-20T12:28:50;100822.94;;;7.78;100.00
29163;BME280;20331;53.144;8.208;2023-12-20T12:34:12;100840.25;;;7.72;100.00
29163;BME280;20331;53.144;8.208;2023-12-20T12:39:34;100837.41;;;7.38;100.00
29163;BME280;20331;53.144;8.208;2023-12-20T12:44:56;100841.06;;;7.25;100.00
29163;BME280;20331;53.144;8.208;2023-12-20T12:50:17;100832.59;;;7.19;100.00
29163;BME280;20331;53.144;8.208;2023-12-20T12:55:39;100832.56;;;7.20;100.00
29163;BME280;20331;53.144;8.208;2023-12-20T13:01:01;100813.44;;;7.35;100.00
29163;BME280;20331;53.144;8.208;2023-12-20T13:06:24;100809.00;;;7.43;100.00
29163;BME280;20331;53.144;8.208;2023-12-20T13:11:46;100824.41;;;7.46;100.00
29163;BME280;20331;53.144;8.208;2023-12-20T13:17:08;100822.63;;;7.49;100.00
29163;BME280;20331;53.144;8.208;2023-12-20T13:22:29;100828.53;;;7.56;100.00
29163;BME280;20331;53.144;8.208;2023-12-20T13:27:51;100826.88;;;7.52;100.00
29163;BME280;20331;53.144;8.208;2023-12-20T13:33:13;100824.31;;;7.52;100.00
29163;BME280;20331;53.144;8.208;2023-12-20T13:38:34;100824.31;;;7.52;100.00
29163;BME280;20331;53.144;8.208;2023-12-20T13:43:56;100824.31;;;7.52;100.00
29163;BME280;20331;53.144;8.208;2023-12-20T13:49:17;100814.88;;;7.49;100.00
29163;BME280;20331;53.144;8.208;2023-12-20T13:54:39;100815.78;;;7.48;100.00
29163;BME280;20331;53.144;8.208;2023-12-20T14:00:01;100803.81;;;7.46;100.00
29163;BME280;20331;53.144;8.208;2023-12-20T14:05:22;100799.47;;;7.48;100.00
29163;BME280;20331;53.144;8.208;2023-12-20T14:10:49;100800.41;;;7.44;100.00
29163;BME280;20331;53.144;8.208;2023-12-20T14:16:11;100798.59;;;7.50;100.00
29163;BME280;20331;53.144;8.208;2023-12-20T14:21:33;100798.59;;;7.50;99.41
29163;BME280;20331;53.144;8.208;2023-12-20T14:26:55;100795.09;;;7.54;98.79
29163;BME280;20331;53.144;8.208;2023-12-20T14:32:17;100805.44;;;7.50;100.00
29163;BME280;20331;53.144;8.208;2023-12-20T14:37:38;100796.88;;;7.51;99.83
29163;BME280;20331;53.144;8.208;2023-12-20T14:43:02;100803.69;;;7.52;100.00
29163;BME280;20331;53.144;8.208;2023-12-20T14:48:25;100784.03;;;7.48;100.00
29163;BME280;20331;53.144;8.208;2023-12-20T14:53:49;100796.91;;;7.48;100.00
29163;BME280;20331;53.144;8.208;2023-12-20T14:59:10;100782.34;;;7.47;100.00
29163;BME280;20331;53.144;8.208;2023-12-20T15:04:32;100775.50;;;7.46;100.00
29163;BME280;20331;53.144;8.208;2023-12-20T15:09:54;100780.56;;;7.50;100.00
29163;BME280;20331;53.144;8.208;2023-12-20T15:15:15;100799.50;;;7.46;100.00
29163;BME280;20331;53.144;8.208;2023-12-20T15:20:37;100773.03;;;7.40;100.00
29163;BME280;20331;53.144;8.208;2023-12-20T15:25:59;100774.81;;;7.35;100.00
29163;BME280;20331;53.144;8.208;2023-12-20T15:31:20;100790.34;;;7.32;100.00
29163;BME280;20331;53.144;8.208;2023-12-20T15:36:47;100795.47;;;7.32;100.00
29163;BME280;20331;53.144;8.208;2023-12-20T15:42:09;100785.25;;;7.29;100.00
29163;BME280;20331;53.144;8.208;2023-12-20T15:47:31;100785.19;;;7.32;100.00
29163;BME280;20331;53.144;8.208;2023-12-20T15:52:53;100790.34;;;7.32;100.00
29163;BME280;20331;53.144;8.208;2023-12-20T15:58:14;100795.41;;;7.35;100.00
29163;BME280;20331;53.144;8.208;2023-12-20T16:03:36;100778.47;;;7.25;100.00
29163;BME280;20331;53.144;8.208;2023-12-20T16:09:07;100769.13;;;7.19;100.00
29163;BME280;20331;53.144;8.208;2023-12-20T16:14:29;100778.66;;;7.12;100.00
29163;BME280;20331;53.144;8.208;2023-12-20T16:19:51;100780.47;;;7.07;100.00
29163;BME280;20331;53.144;8.208;2023-12-20T16:25:13;100773.63;;;7.06;100.00
29163;BME280;20331;53.144;8.208;2023-12-20T16:30:35;100777.06;;;7.05;100.00
29163;BME280;20331;53.144;8.208;2023-12-20T16:35:57;100774.50;;;7.05;100.00
29163;BME280;20331;53.144;8.208;2023-12-20T16:41:18;100783.19;;;6.98;100.00
29163;BME280;20331;53.144;8.208;2023-12-20T16:46:40;100755.75;;;6.99;100.00
29163;BME280;20331;53.144;8.208;2023-12-20T16:52:03;100749.81;;;6.95;100.00
29163;BME280;20331;53.144;8.208;2023-12-20T16:57:26;100754.94;;;6.95;100.00
29163;BME280;20331;53.144;8.208;2023-12-20T17:02:48;100750.59;;;6.99;100.00
29163;BME280;20331;53.144;8.208;2023-12-20T17:08:09;100729.16;;;6.98;100.00
29163;BME280;20331;53.144;8.208;2023-12-20T17:13:31;100729.16;;;6.98;100.00
29163;BME280;20331;53.144;8.208;2023-12-20T17:18:53;100717.13;;;7.00;100.00
29163;BME280;20331;53.144;8.208;2023-12-20T17:24:14;100718.88;;;6.98;100.00
29163;BME280;20331;53.144;8.208;2023-12-20T17:29:36;100708.66;;;6.95;100.00
29163;BME280;20331;53.144;8.208;2023-12-20T17:34:58;100691.56;;;6.91;100.00
29163;BME280;20331;53.144;8.208;2023-12-20T17:40:19;100686.50;;;6.88;100.00
29163;BME280;20331;53.144;8.208;2023-12-20T17:45:41;100674.44;;;6.90;100.00
29163;BME280;20331;53.144;8.208;2023-12-20T17:51:03;100667.63;;;6.88;100.00
29163;BME280;20331;53.144;8.208;2023-12-20T17:56:25;100656.56;;;6.84;100.00
29163;BME280;20331;53.144;8.208;2023-12-20T18:01:46;100649.66;;;6.86;100.00
29163;BME280;20331;53.144;8.208;2023-12-20T18:07:09;100646.16;;;6.89;100.00
29163;BME280;20331;53.144;8.208;2023-12-20T18:12:30;100620.53;;;6.86;100.00
29163;BME280;20331;53.144;8.208;2023-12-20T18:17:52;100623.06;;;6.87;100.00
29163;BME280;20331;53.144;8.208;2023-12-20T18:23:14;100610.13;;;6.92;100.00
29163;BME280;20331;53.144;8.208;2023-12-20T18:28:36;100583.53;;;6.93;100.00
29163;BME280;20331;53.144;8.208;2023-12-20T18:33:58;100574.91;;;6.95;100.00
29163;BME280;20331;53.144;8.208;2023-12-20T18:39:20;100550.94;;;6.93;100.00
29163;BME280;20331;53.144;8.208;2023-12-20T18:44:41;100544.06;;;6.95;100.00
29163;BME280;20331;53.144;8.208;2023-12-20T18:50:03;100531.19;;;6.95;100.00
29163;BME280;20331;53.144;8.208;2023-12-20T18:55:29;100519.97;;;6.99;100.00
29163;BME280;20331;53.144;8.208;2023-12-20T19:00:51;100499.41;;;6.99;100.00
29163;BME280;20331;53.144;8.208;2023-12-20T19:06:12;100486.41;;;7.04;100.00
29163;BME280;20331;53.144;8.208;2023-12-20T19:11:34;100458.88;;;7.09;100.00
29163;BME280;20331;53.144;8.208;2023-12-20T19:16:56;100454.41;;;7.17;100.00
29163;BME280;20331;53.144;8.208;2023-12-20T19:22:20;100432.81;;;7.24;100.00
29163;BME280;20331;53.144;8.208;2023-12-20T19:27:42;100419.69;;;7.35;100.00
29163;BME280;20331;53.144;8.208;2023-12-20T19:33:05;100394.69;;;7.40;100.00
29163;BME280;20331;53.144;8.208;2023-12-20T19:38:26;100376.47;;;7.49;100.00
29163;BME280;20331;53.144;8.208;2023-12-20T19:43:48;100373.59;;;7.59;100.00
29163;BME280;20331;53.144;8.208;2023-12-20T19:49:10;100361.50;;;7.63;100.00
29163;BME280;20331;53.144;8.208;2023-12-20T19:54:32;100339.00;;;7.69;100.00
29163;BME280;20331;53.144;8.208;2023-12-20T19:59:53;100338.09;;;7.72;100.00
29163;BME280;20331;53.144;8.208;2023-12-20T20:05:15;100317.19;;;7.82;100.00
29163;BME280;20331;53.144;8.208;2023-12-20T20:10:37;100306.72;;;7.88;100.00
29163;BME280;20331;53.144;8.208;2023-12-20T20:15:59;100304.66;;;8.01;100.00
29163;BME280;20331;53.144;8.208;2023-12-20T20:21:21;100289.91;;;8.06;100.00
29163;BME280;20331;53.144;8.208;2023-12-20T20:26:42;100294.03;;;8.11;100.00
29163;BME280;20331;53.144;8.208;2023-12-20T20:32:05;100287.81;;;8.18;100.00
29163;BME280;20331;53.144;8.208;2023-12-20T20:37:27;100278.16;;;8.27;100.00
29163;BME280;20331;53.144;8.208;2023-12-20T20:42:48;100279.81;;;8.29;100.00
29163;BME280;20331;53.144;8.208;2023-12-20T20:48:10;100260.81;;;8.33;100.00
29163;BME280;20331;53.144;8.208;2023-12-20T20:53:48;100251.94;;;8.42;100.00
29163;BME280;20331;53.144;8.208;2023-12-20T20:59:18;100226.91;;;8.45;100.00
29163;BME280;20331;53.144;8.208;2023-12-20T21:04:40;100213.84;;;8.51;100.00
29163;BME280;20331;53.144;8.208;2023-12-20T21:10:02;100207.41;;;8.64;100.00
29163;BME280;20331;53.144;8.208;2023-12-20T21:15:24;100198.81;;;8.64;100.00
29163;BME280;20331;53.144;8.208;2023-12-20T21:20:45;100209.91;;;8.66;100.00
29163;BME280;20331;53.144;8.208;2023-12-20T21:26:09;100212.19;;;8.75;100.00
29163;BME280;20331;53.144;8.208;2023-12-20T21:31:32;100223.16;;;8.81;100.00
29163;BME280;20331;53.144;8.208;2023-12-20T21:36:54;100211.97;;;8.81;100.00
29163;BME280;20331;53.144;8.208;2023-12-20T21:42:16;100226.53;;;8.83;100.00
29163;BME280;20331;53.144;8.208;2023-12-20T21:47:38;100214.31;;;8.88;100.00
29163;BME280;20331;53.144;8.208;2023-12-20T21:52:59;100207.53;;;8.86;100.00
29163;BME280;20331;53.144;8.208;2023-12-20T21:58:21;100204.78;;;8.90;100.00
29163;BME280;20331;53.144;8.208;2023-12-20T22:03:43;100208.03;;;8.95;100.00
29163;BME280;20331;53.144;8.208;2023-12-20T22:09:04;100210.50;;;9.00;100.00
29163;BME280;20331;53.144;8.208;2023-12-20T22:14:26;100202.69;;;9.01;100.00
29163;BME280;20331;53.144;8.208;2023-12-20T22:19:50;100201.69;;;9.05;100.00
29163;BME280;20331;53.144;8.208;2023-12-20T22:25:12;100194.63;;;9.10;100.00
29163;BME280;20331;53.144;8.208;2023-12-20T22:30:33;100183.31;;;9.14;100.00
29163;BME280;20331;53.144;8.208;2023-12-20T22:35:55;100174.56;;;9.19;100.00
29163;BME280;20331;53.144;8.208;2023-12-20T22:41:17;100171.09;;;9.20;100.00
29163;BME280;20331;53.144;8.208;2023-12-20T22:46:39;100153.72;;;9.25;100.00
29163;BME280;20331;53.144;8.208;2023-12-20T22:52:02;100151.03;;;9.28;100.00
29163;BME280;20331;53.144;8.208;2023-12-20T22:57:23;100149.91;;;9.35;100.00
29163;BME280;20331;53.144;8.208;2023-12-20T23:02:45;100144.59;;;9.39;100.00
29163;BME280;20331;53.144;8.208;2023-12-20T23:08:07;100136.78;;;9.41;100.00
29163;BME280;20331;53.144;8.208;2023-12-20T23:13:29;100138.34;;;9.45;100.00
29163;BME280;20331;53.144;8.208;2023-12-20T23:18:50;100122.75;;;9.48;100.00
29163;BME280;20331;53.144;8.208;2023-12-20T23:24:12;100145.06;;;9.49;100.00
29163;BME280;20331;53.144;8.208;2023-12-20T23:29:36;100120.16;;;9.48;100.00
29163;BME280;20331;53.144;8.208;2023-12-20T23:34:58;100125.19;;;9.51;100.00
29163;BME280;20331;53.144;8.208;2023-12-20T23:40:33;100137.91;;;9.57;100.00
29163;BME280;20331;53.144;8.208;2023-12-20T23:45:55;100144.84;;;9.55;100.00
29163;BME280;20331;53.144;8.208;2023-12-20T23:51:17;100146.56;;;9.56;100.00
29163;BME280;20331;53.144;8.208;2023-12-20T23:56:38;100141.25;;;9.59;100.00
